createdAt,value
2023-01-31T00:04:04.658Z,100334.81
2023-01-31T00:09:09.287Z,100329.38
2023-01-31T00:14:19.218Z,100327.41
2023-01-31T00:19:21.904Z,100331.97
2023-01-31T00:24:24.719Z,100336.69
2023-01-31T00:29:28.808Z,100330.56
2023-01-31T00:34:31.586Z,100355.53
2023-01-31T00:39:34.687Z,100342.38
2023-01-31T00:44:38.860Z,100354.53
2023-01-31T00:49:41.589Z,100361.84
2023-01-31T00:54:44.298Z,100365.16
2023-01-31T00:59:48.824Z,100369.81
2023-01-31T01:04:51.637Z,100367.00
2023-01-31T01:09:54.395Z,100363.69
2023-01-31T01:14:58.456Z,100374.41
2023-01-31T01:20:03.646Z,100378.16
2023-01-31T01:25:07.712Z,100390.34
2023-01-31T01:30:13.950Z,100402.50
2023-01-31T01:35:16.958Z,100407.81
2023-01-31T01:40:19.780Z,100426.41
2023-01-31T01:45:24.136Z,100429.94
2023-01-31T01:50:30.196Z,100422.47
2023-01-31T01:55:36.458Z,100427.78
2023-01-31T02:00:40.832Z,100439.09
2023-01-31T02:05:46.139Z,100422.38
2023-01-31T02:10:52.058Z,100428.72
2023-01-31T02:15:56.412Z,100437.72
2023-01-31T02:21:32.425Z,100433.78
2023-01-31T02:27:07.693Z,100412.06
2023-01-31T02:32:35.732Z,100437.66
2023-01-31T02:37:45.269Z,100448.84
2023-01-31T02:42:54.386Z,100467.97
2023-01-31T02:48:07.941Z,100474.88
2023-01-31T02:53:18.601Z,100486.59
2023-01-31T02:58:22.060Z,100494.59
2023-01-31T03:03:28.345Z,100519.75
2023-01-31T03:08:32.785Z,100526.72
2023-01-31T03:13:46.349Z,100516.13
2023-01-31T03:18:55.247Z,100537.31
2023-01-31T03:23:59.015Z,100524.09
2023-01-31T03:29:02.913Z,100543.03
2023-01-31T03:34:09.035Z,100539.69
2023-01-31T03:39:16.366Z,100530.16
2023-01-31T03:44:25.873Z,100532.75
2023-01-31T03:49:35.263Z,100535.47
2023-01-31T03:54:42.048Z,100521.63
2023-01-31T03:59:46.807Z,100529.41
2023-01-31T04:04:55.077Z,100528.69
2023-01-31T04:09:57.941Z,100539.00
2023-01-31T04:15:00.680Z,100536.41
2023-01-31T04:20:05.869Z,100539.19
2023-01-31T04:25:09.383Z,100552.59
2023-01-31T04:30:13.344Z,100549.56
2023-01-31T04:35:17.880Z,100571.41
2023-01-31T04:40:21.405Z,100563.06
2023-01-31T04:45:24.134Z,100567.97
2023-01-31T04:50:28.255Z,100573.34
2023-01-31T04:55:31.009Z,100568.34
2023-01-31T05:00:33.759Z,100576.22
2023-01-31T05:05:37.848Z,100567.72
2023-01-31T05:10:40.797Z,100579.25
2023-01-31T05:15:43.655Z,100582.97
2023-01-31T05:20:50.053Z,100568.44
2023-01-31T05:25:52.751Z,100567.50
2023-01-31T05:30:55.979Z,100570.16
2023-01-31T05:36:00.318Z,100571.84
2023-01-31T05:41:03.161Z,100566.56
2023-01-31T05:46:06.278Z,100570.81
2023-01-31T05:51:10.377Z,100582.22
2023-01-31T05:56:13.894Z,100578.81
2023-01-31T06:01:16.599Z,100590.13
2023-01-31T06:06:21.215Z,100598.94
2023-01-31T06:11:25.169Z,100585.13
2023-01-31T06:16:27.966Z,100607.38
2023-01-31T06:21:32.124Z,100597.31
2023-01-31T06:26:34.866Z,100593.91
2023-01-31T06:31:37.785Z,100598.97
2023-01-31T06:36:42.045Z,100597.31
2023-01-31T06:41:44.757Z,100611.13
2023-01-31T06:46:47.557Z,100595.88
2023-01-31T06:51:51.759Z,100611.03
2023-01-31T06:56:54.942Z,100620.19
2023-01-31T07:01:57.808Z,100619.25
2023-01-31T07:07:01.942Z,100635.03
2023-01-31T07:12:05.176Z,100634.75
2023-01-31T07:17:07.938Z,100637.59
2023-01-31T07:22:12.132Z,100627.81
2023-01-31T07:27:14.971Z,100637.28
2023-01-31T07:32:17.915Z,100629.50
2023-01-31T07:37:21.954Z,100618.97
2023-01-31T07:42:24.661Z,100629.28
2023-01-31T07:47:27.415Z,100616.31
2023-01-31T07:52:32.269Z,100622.00
2023-01-31T07:57:35.079Z,100627.59
2023-01-31T08:02:55.539Z,100623.00
2023-01-31T08:08:10.437Z,100618.25
2023-01-31T08:13:13.378Z,100623.47
2023-01-31T08:18:16.105Z,100622.66
2023-01-31T08:23:20.167Z,100619.25
2023-01-31T08:28:22.884Z,100605.22
2023-01-31T08:33:26.040Z,100594.81
2023-01-31T08:38:30.524Z,100592.19
2023-01-31T08:43:42.620Z,100592.13
2023-01-31T08:48:55.752Z,100584.44
2023-01-31T08:53:59.841Z,100595.84
2023-01-31T08:59:02.600Z,100597.31
2023-01-31T09:04:05.981Z,100571.19
2023-01-31T09:09:10.392Z,100578.91
2023-01-31T09:14:13.105Z,100574.94
2023-01-31T09:19:15.915Z,100558.19
2023-01-31T09:24:20.072Z,100548.63
2023-01-31T09:29:22.801Z,100544.56
2023-01-31T09:34:25.628Z,100549.44
2023-01-31T09:39:29.774Z,100559.38
2023-01-31T09:44:34.380Z,100547.75
2023-01-31T09:49:44.247Z,100545.75
2023-01-31T09:54:48.414Z,100566.44
2023-01-31T09:59:56.223Z,100538.00
2023-01-31T10:05:10.548Z,100528.84
2023-01-31T10:10:22.670Z,100516.00
2023-01-31T10:15:32.832Z,100523.84
2023-01-31T10:20:38.897Z,100522.44
2023-01-31T10:25:48.653Z,100515.63
2023-01-31T10:30:58.156Z,100545.81
2023-01-31T10:36:04.500Z,100513.25
2023-01-31T10:41:14.649Z,100513.69
2023-01-31T10:46:17.444Z,100499.78
2023-01-31T10:51:31.551Z,100493.78
2023-01-31T10:56:37.864Z,100469.94
2023-01-31T11:01:42.131Z,100441.56
2023-01-31T11:06:44.922Z,100448.03
2023-01-31T11:11:56.855Z,100428.25
2023-01-31T11:17:02.141Z,100419.28
2023-01-31T11:22:05.766Z,100400.81
2023-01-31T11:27:12.571Z,100393.09
2023-01-31T11:32:19.484Z,100406.13
2023-01-31T11:37:22.222Z,100373.13
2023-01-31T11:42:26.886Z,100380.09
2023-01-31T11:47:35.408Z,100355.34
2023-01-31T11:52:38.147Z,100353.59
2023-01-31T11:57:42.610Z,100333.94
2023-01-31T12:02:45.728Z,100312.59
2023-01-31T12:07:50.192Z,100313.28
2023-01-31T12:13:17.537Z,100285.84
2023-01-31T12:18:44.878Z,100281.59
2023-01-31T12:23:55.722Z,100263.72
2023-01-31T12:29:13.005Z,100247.75
2023-01-31T12:34:28.463Z,100231.28
2023-01-31T12:39:47.282Z,100238.53
2023-01-31T12:44:53.162Z,100247.03
2023-01-31T12:50:05.818Z,100231.16
2023-01-31T12:55:20.482Z,100219.72
2023-01-31T13:00:34.145Z,100208.94
2023-01-31T13:05:41.945Z,100180.66
2023-01-31T13:10:46.995Z,100186.09
2023-01-31T13:15:54.644Z,100170.03
2023-01-31T13:20:59.347Z,100180.66
2023-01-31T13:26:07.631Z,100197.22
2023-01-31T13:31:17.155Z,100191.69
2023-01-31T13:36:25.239Z,100168.84
2023-01-31T13:41:29.532Z,100160.78
2023-01-31T13:46:38.175Z,100161.50
2023-01-31T13:51:44.710Z,100181.00
2023-01-31T13:56:51.415Z,100157.22
2023-01-31T14:01:56.710Z,100171.56
2023-01-31T14:07:18.363Z,100153.91
2023-01-31T14:12:33.883Z,100138.91
2023-01-31T14:18:00.835Z,100133.66
2023-01-31T14:23:33.604Z,100122.66
2023-01-31T14:28:44.035Z,100140.88
2023-01-31T14:33:50.233Z,100131.53
2023-01-31T14:39:32.841Z,100126.19
2023-01-31T14:44:44.856Z,100131.53
2023-01-31T14:50:15.151Z,100135.84
2023-01-31T14:55:34.174Z,100163.75
2023-01-31T15:00:39.115Z,100141.72
2023-01-31T15:05:46.248Z,100179.72
2023-01-31T15:11:03.163Z,100156.38
2023-01-31T15:16:08.383Z,100168.19
2023-01-31T15:21:12.771Z,100163.91
2023-01-31T15:26:17.358Z,100196.38
2023-01-31T15:31:24.619Z,100162.69
2023-01-31T15:36:33.135Z,100151.28
2023-01-31T15:41:39.955Z,100140.25
2023-01-31T15:46:44.435Z,100174.97
2023-01-31T15:52:03.524Z,100135.91
2023-01-31T15:57:06.692Z,100153.97
2023-01-31T16:02:20.776Z,100155.63
2023-01-31T16:07:28.373Z,100176.06
2023-01-31T16:12:32.182Z,100147.03
2023-01-31T16:17:35.512Z,100145.75
2023-01-31T16:22:39.967Z,100140.56
2023-01-31T16:27:45.261Z,100134.94
2023-01-31T16:32:51.432Z,100129.59
2023-01-31T16:38:03.949Z,100145.09
2023-01-31T16:43:11.761Z,100142.16
2023-01-31T16:48:22.658Z,100139.19
2023-01-31T16:53:29.088Z,100178.91
2023-01-31T16:58:48.053Z,100138.97
2023-01-31T17:04:06.525Z,100150.19
2023-01-31T17:09:16.024Z,100177.25
2023-01-31T17:14:19.002Z,100147.72
2023-01-31T17:19:21.850Z,100157.63
2023-01-31T17:24:25.961Z,100156.38
2023-01-31T17:29:28.815Z,100156.06
2023-01-31T17:34:31.700Z,100166.47
2023-01-31T17:39:36.292Z,100152.38
2023-01-31T17:44:39.134Z,100115.34
2023-01-31T17:49:41.985Z,100156.91
2023-01-31T17:54:46.020Z,100113.59
2023-01-31T17:59:48.828Z,100128.84
2023-01-31T18:04:52.184Z,100115.09
2023-01-31T18:09:56.342Z,100103.75
2023-01-31T18:14:59.157Z,100120.19
2023-01-31T18:20:02.087Z,100113.22
2023-01-31T18:25:07.547Z,100134.97
2023-01-31T18:30:11.819Z,100091.88
2023-01-31T18:35:14.567Z,100111.75
2023-01-31T18:40:18.956Z,100106.75
2023-01-31T18:45:22.138Z,100097.97
2023-01-31T18:50:25.205Z,100071.84
2023-01-31T18:55:29.259Z,100065.63
2023-01-31T19:00:32.193Z,100090.50
2023-01-31T19:05:38.609Z,100084.47
2023-01-31T19:10:42.736Z,100080.06
2023-01-31T19:15:45.703Z,100090.97
2023-01-31T19:20:48.446Z,100113.00
2023-01-31T19:25:53.051Z,100086.88
2023-01-31T19:30:56.103Z,100091.03
2023-01-31T19:35:58.869Z,100087.13
2023-01-31T19:41:07.542Z,100108.88
2023-01-31T19:46:10.444Z,100109.81
2023-01-31T19:51:15.076Z,100072.34
2023-01-31T19:56:19.182Z,100135.44
2023-01-31T20:01:22.010Z,100085.81
2023-01-31T20:06:26.489Z,100085.47
2023-01-31T20:11:30.757Z,100092.22
2023-01-31T20:16:33.958Z,100055.56
2023-01-31T20:21:37.137Z,100101.06
2023-01-31T20:26:41.348Z,100077.66
2023-01-31T20:31:44.151Z,100070.22
2023-01-31T20:36:46.983Z,100094.34
2023-01-31T20:41:51.316Z,100094.69
2023-01-31T20:46:54.333Z,100091.47
2023-01-31T20:51:57.930Z,100105.78
2023-01-31T20:57:02.429Z,100107.88
2023-01-31T21:02:05.245Z,100106.56
2023-01-31T21:07:07.931Z,100121.94
2023-01-31T21:12:12.063Z,100123.09
2023-01-31T21:17:14.857Z,100132.69
2023-01-31T21:22:17.770Z,100117.31
2023-01-31T21:27:22.261Z,100121.66
2023-01-31T21:32:25.145Z,100106.28
2023-01-31T21:37:28.050Z,100107.34
2023-01-31T21:42:32.401Z,100099.91
2023-01-31T21:47:55.176Z,100113.84
2023-01-31T21:52:58.026Z,100130.16
2023-01-31T21:58:02.609Z,100127.41
2023-01-31T22:03:05.303Z,100147.16
2023-01-31T22:08:08.055Z,100136.66
2023-01-31T22:13:12.199Z,100132.28
2023-01-31T22:18:14.916Z,100129.09
2023-01-31T22:23:17.809Z,100120.56
2023-01-31T22:28:21.948Z,100111.25
2023-01-31T22:33:24.731Z,100114.78
2023-01-31T22:38:28.149Z,100115.59
2023-01-31T22:43:32.594Z,100123.63
2023-01-31T22:48:36.313Z,100105.69
2023-01-31T22:53:39.622Z,100089.16
2023-01-31T22:58:44.343Z,100105.19
2023-01-31T23:03:47.393Z,100108.50
2023-01-31T23:08:50.262Z,100113.13
2023-01-31T23:13:54.369Z,100101.50
2023-01-31T23:18:57.067Z,100112.03
2023-01-31T23:23:59.796Z,100107.19
2023-01-31T23:29:03.961Z,100112.81
2023-01-31T23:34:07.542Z,100123.09
2023-01-31T23:39:11.181Z,100122.38
2023-01-31T23:44:15.284Z,100126.63
2023-01-31T23:49:17.994Z,100123.19
2023-01-31T23:54:20.755Z,100133.38
2023-01-31T23:59:24.829Z,100137.22
